Time;durP1;ratioP1;P1;durP2;ratioP2;P2;SDS_P1;SDS_P2;PMS_P1;PMS_P2;Temp;Humidity;BMP_temperature;BMP_pressure;BME280_temperature;BME280_humidity;BME280_pressure;Samples;Min_cycle;Max_cycle;Signal;HPM_P1;HPM_P2
2023/03/14 00:00:22;;;;;;;;;0.00;0.00;;;;;14.63;53.47;100156.94;4997728;28;45393;-83
2023/03/14 00:02:52;;;;;;;;;1.67;0.00;;;;;14.70;53.71;100157.84;4998112;28;45810;-81
2023/03/14 00:05:18;;;;;;;;;1.00;0.00;;;;;14.68;52.96;100146.44;4998254;28;45292;-82
2023/03/14 00:07:43;;;;;;;;;1.67;0.33;;;;;14.69;53.28;100175.38;4997477;28;45383;-84
2023/03/14 00:10:14;;;;;;;;;1.00;0.00;;;;;14.72;53.37;100174.53;4997398;28;45427;-83
2023/03/14 00:12:41;;;;;;;;;2.00;0.00;;;;;14.71;53.27;100178.03;4996396;28;45288;-83
2023/03/14 00:15:07;;;;;;;;;0.67;0.00;;;;;14.71;52.85;100178.03;4997872;28;45522;-84
2023/03/14 00:17:34;;;;;;;;;0.00;0.00;;;;;14.65;53.51;100184.13;4997487;28;45973;-83
2023/03/14 00:20:07;;;;;;;;;1.00;0.00;;;;;14.62;53.60;100173.59;4995994;28;45503;-83
2023/03/14 00:22:34;;;;;;;;;0.67;0.00;;;;;14.66;53.83;100195.50;4997572;28;45297;-82
2023/03/14 00:25:00;;;;;;;;;2.00;0.33;;;;;14.63;53.55;100192.88;4996219;28;45537;-83
2023/03/14 00:27:26;;;;;;;;;2.00;0.00;;;;;14.63;53.72;100196.38;4996202;28;46075;-83
2023/03/14 00:29:52;;;;;;;;;1.67;0.00;;;;;14.51;53.12;100191.00;4995504;28;45558;-83
2023/03/14 00:32:17;;;;;;;;;1.33;0.00;;;;;14.48;52.73;100205.00;4996709;28;45380;-83
2023/03/14 00:34:43;;;;;;;;;1.33;0.00;;;;;14.52;52.79;100213.75;4995660;28;45555;-83
2023/03/14 00:37:08;;;;;;;;;0.00;0.00;;;;;14.38;52.27;100213.66;4996307;28;45883;-83
2023/03/14 00:39:34;;;;;;;;;0.67;0.33;;;;;14.27;51.94;100224.06;4995927;28;45359;-82
2023/03/14 00:41:59;;;;;;;;;1.33;1.00;;;;;14.29;52.34;100217.06;4991909;28;45588;-79
2023/03/14 00:44:25;;;;;;;;;1.00;0.00;;;;;14.32;51.60;100224.09;4996570;28;45628;-80
2023/03/14 00:46:51;;;;;;;;;2.00;1.00;;;;;14.29;51.22;100224.97;4996670;28;45397;-82
2023/03/14 00:49:16;;;;;;;;;2.00;0.00;;;;;14.22;50.65;100223.13;4996689;28;45461;-83
2023/03/14 00:51:42;;;;;;;;;1.00;0.00;;;;;14.25;51.01;100212.66;4999549;28;45475;-79
2023/03/14 00:54:07;;;;;;;;;1.00;0.00;;;;;14.27;51.14;100220.56;4996903;28;45308;-77
2023/03/14 00:56:33;;;;;;;;;3.33;1.00;;;;;14.27;50.43;100223.19;4996494;28;45915;-79
2023/03/14 00:58:58;;;;;;;;;0.33;0.33;;;;;14.26;50.92;100227.53;4996237;28;45517;-79
2023/03/14 01:01:24;;;;;;;;;1.33;0.00;;;;;14.26;50.56;100229.28;4996531;28;45410;-69
2023/03/14 01:03:54;;;;;;;;;1.00;0.67;;;;;14.28;49.98;100238.06;4997112;28;45635;-81
2023/03/14 01:06:28;;;;;;;;;1.00;1.00;;;;;14.26;50.10;100232.78;4996308;28;46100;-81
2023/03/14 01:08:55;;;;;;;;;2.00;1.67;;;;;14.26;50.07;100221.41;4997098;28;45603;-84
2023/03/14 01:11:32;;;;;;;;;1.00;0.00;;;;;14.20;50.25;100226.63;4995031;28;45537;-82
2023/03/14 01:13:58;;;;;;;;;0.33;0.00;;;;;14.25;50.94;100230.19;4995900;28;45411;-83
2023/03/14 01:16:26;;;;;;;;;2.00;1.00;;;;;14.26;50.58;100234.56;4996220;28;45386;-84
2023/03/14 01:18:51;;;;;;;;;1.00;1.00;;;;;14.26;50.62;100239.81;4996152;28;45296;-76
2023/03/14 01:21:23;;;;;;;;;1.00;0.00;;;;;14.33;51.08;100257.41;4980617;28;45415;-80
2023/03/14 01:23:49;;;;;;;;;1.33;0.67;;;;;14.27;50.48;100244.22;4996005;28;45430;-83
2023/03/14 01:26:21;;;;;;;;;1.00;0.00;;;;;14.33;50.71;100244.28;4995496;28;46094;-83
2023/03/14 01:28:47;;;;;;;;;1.00;1.00;;;;;14.33;50.99;100265.28;4995183;28;45591;-81
2023/03/14 01:31:13;;;;;;;;;2.00;0.00;;;;;14.27;50.48;100266.09;4995944;28;46289;-83
2023/03/14 01:33:40;;;;;;;;;1.00;1.00;;;;;14.30;50.34;100254.75;5010951;28;45555;-79
2023/03/14 01:36:06;;;;;;;;;1.00;0.67;;;;;14.25;50.32;100269.59;4995907;28;45499;-82
2023/03/14 01:38:33;;;;;;;;;1.67;0.67;;;;;14.30;50.45;100270.50;4996292;28;45317;-80
2023/03/14 01:40:59;;;;;;;;;1.00;0.67;;;;;14.25;49.77;100266.97;4981215;28;45531;-82
2023/03/14 01:43:25;;;;;;;;;1.00;1.00;;;;;14.22;50.09;100267.78;4992344;28;45491;-76
2023/03/14 01:46:05;;;;;;;;;1.00;1.00;;;;;14.25;49.89;100291.47;4999097;28;46171;-70
2023/03/14 01:48:59;;;;;;;;;0.33;0.00;;;;;14.13;50.57;100289.59;4999106;28;45467;-74
2023/03/14 01:51:46;;;;;;;;;1.00;0.00;;;;;14.13;51.18;100299.22;4999561;28;45535;-82
2023/03/14 01:54:25;;;;;;;;;2.00;1.00;;;;;14.08;52.08;100309.66;4999467;28;45404;-83
2023/03/14 01:57:01;;;;;;;;;3.00;0.33;;;;;14.04;52.17;100313.13;4999004;28;45988;-83
2023/03/14 01:59:30;;;;;;;;;1.00;0.00;;;;;13.98;50.48;100299.03;4999981;28;45980;-82
2023/03/14 02:01:56;;;;;;;;;2.00;1.00;;;;;13.98;50.35;100302.53;4999235;28;45564;-80
2023/03/14 02:04:23;;;;;;;;;1.00;0.00;;;;;13.93;49.91;100292.00;4998401;28;46770;-80
2023/03/14 02:07:00;;;;;;;;;6.00;2.00;;;;;13.87;49.97;100312.06;4998472;28;47067;-80
2023/03/14 02:09:25;;;;;;;;;1.67;1.00;;;;;13.88;50.23;100311.19;4998515;28;45408;-81
2023/03/14 02:11:51;;;;;;;;;3.67;1.33;;;;;13.88;49.80;100312.03;4998477;28;45411;-83
2023/03/14 02:14:34;;;;;;;;;2.00;1.00;;;;;13.86;50.10;100320.78;4999061;28;45525;-84
2023/03/14 02:17:02;;;;;;;;;1.00;1.00;;;;;13.82;50.08;100309.34;4999266;28;45447;-82
2023/03/14 02:19:54;;;;;;;;;1.00;0.67;;;;;13.92;50.45;100331.34;4998921;28;45445;-82
2023/03/14 02:22:20;;;;;;;;;4.67;1.00;;;;;13.90;50.54;100330.47;4995290;28;45588;-83
2023/03/14 02:25:07;;;;;;;;;2.00;1.00;;;;;13.80;50.24;100324.19;4998623;28;45222;-76
2023/03/14 02:27:34;;;;;;;;;1.67;1.00;;;;;13.73;51.06;100339.00;4998436;28;45458;-82
2023/03/14 02:30:10;;;;;;;;;1.00;0.00;;;;;13.76;50.95;100326.78;4998298;28;45485;-68
2023/03/14 02:32:40;;;;;;;;;0.67;0.00;;;;;13.80;51.68;100331.19;4995774;28;45548;-82
2023/03/14 02:35:20;;;;;;;;;2.67;1.00;;;;;13.66;51.90;100310.88;4998153;28;45521;-83
2023/03/14 02:37:52;;;;;;;;;2.33;1.00;;;;;13.77;51.87;100312.75;4998317;28;46317;-82
2023/03/14 02:40:17;;;;;;;;;2.00;1.00;;;;;13.79;52.77;100316.31;4997152;28;45304;-79
2023/03/14 02:42:43;;;;;;;;;3.00;1.00;;;;;13.73;53.61;100323.25;4998609;28;45426;-82
2023/03/14 02:45:08;;;;;;;;;1.00;1.00;;;;;13.69;54.70;100352.06;5000942;28;45606;-82
2023/03/14 02:47:41;;;;;;;;;4.00;1.00;;;;;13.62;55.86;100339.72;4986709;28;45556;-82
2023/03/14 02:50:12;;;;;;;;;4.67;2.00;;;;;13.62;56.75;100345.81;4998449;28;45240;-82
2023/03/14 02:52:37;;;;;;;;;5.00;1.33;;;;;13.18;59.91;100334.63;4994702;28;45507;-77
2023/03/14 02:55:03;;;;;;;;;3.00;2.00;;;;;13.26;60.49;100357.50;4998710;28;45502;-81
2023/03/14 02:57:29;;;;;;;;;2.00;0.00;;;;;13.12;61.30;100353.78;4998581;28;45517;-82
2023/03/14 02:59:59;;;;;;;;;3.67;1.00;;;;;12.88;62.75;100357.75;4998127;28;45530;-82
2023/03/14 03:02:24;;;;;;;;;3.67;2.00;;;;;12.80;64.93;100346.25;4998083;28;45309;-82
2023/03/14 03:04:50;;;;;;;;;3.00;1.00;;;;;12.82;64.02;100336.66;4998718;28;45405;-82
2023/03/14 03:07:15;;;;;;;;;1.00;1.00;;;;;12.82;64.39;100341.91;4997760;28;45666;-82
2023/03/14 03:09:41;;;;;;;;;2.75;1.25;;;;;12.84;66.37;100374.28;4997439;28;45454;-83
2023/03/14 03:12:06;;;;;;;;;4.50;2.00;;;;;12.85;65.60;100369.91;4998310;28;45462;-82
2023/03/14 03:14:32;;;;;;;;;1.33;1.00;;;;;12.77;65.71;100364.53;5002600;28;45579;-74
2023/03/14 03:16:57;;;;;;;;;2.67;1.00;;;;;12.89;64.85;100370.00;4993826;28;47611;-81
2023/03/14 03:19:23;;;;;;;;;2.00;1.33;;;;;12.88;65.47;100389.19;4978357;28;45480;-82
2023/03/14 03:21:48;;;;;;;;;1.67;1.00;;;;;12.81;66.14;100370.72;4990948;28;45535;-82
2023/03/14 03:24:14;;;;;;;;;5.00;1.00;;;;;12.91;65.08;100384.03;4997203;28;45362;-82
2023/03/14 03:26:40;;;;;;;;;2.00;1.00;;;;;12.92;65.29;100391.03;4996678;28;46221;-82
2023/03/14 03:29:05;;;;;;;;;2.00;0.67;;;;;12.85;63.72;100376.06;4997267;28;45308;-82
2023/03/14 03:31:30;;;;;;;;;4.25;1.50;;;;;12.89;63.82;100395.31;4997123;28;45617;-82
2023/03/14 03:33:57;;;;;;;;;3.00;1.00;;;;;12.82;64.61;100407.44;4996846;28;45494;-82
2023/03/14 03:36:25;;;;;;;;;3.25;1.50;;;;;12.81;62.86;100405.69;4996893;28;45461;-83
2023/03/14 03:38:51;;;;;;;;;2.75;1.50;;;;;12.80;63.41;100408.28;4997233;28;45430;-83
2023/03/14 03:41:16;;;;;;;;;2.00;1.00;;;;;12.72;63.59;100401.16;4996345;28;45601;-82
2023/03/14 03:43:42;;;;;;;;;1.00;0.33;;;;;12.64;62.71;100421.09;4997543;28;45561;-83
2023/03/14 03:46:08;;;;;;;;;1.00;0.00;;;;;12.58;61.72;100414.84;4997219;28;46013;-82
2023/03/14 03:48:34;;;;;;;;;1.00;0.00;;;;;12.48;61.49;100405.94;4997453;28;45782;-81
2023/03/14 03:51:00;;;;;;;;;4.00;1.00;;;;;12.61;60.88;100420.13;4997232;28;45308;-83
2023/03/14 03:53:26;;;;;;;;;3.00;1.00;;;;;12.65;61.13;100429.81;4997176;28;45466;-82
2023/03/14 03:55:52;;;;;;;;;2.25;1.25;;;;;12.64;60.72;100399.25;4994495;28;47688;-80
2023/03/14 03:58:17;;;;;;;;;1.50;0.50;;;;;12.58;60.73;100441.06;4997533;28;45497;-81
2023/03/14 04:00:43;;;;;;;;;2.50;1.00;;;;;12.58;61.01;100423.59;4997694;28;45455;-72
2023/03/14 04:03:08;;;;;;;;;2.33;1.00;;;;;12.56;61.16;100420.06;4996398;28;45599;-81
2023/03/14 04:05:34;;;;;;;;;2.33;0.33;;;;;12.48;60.43;100411.16;4997119;28;45374;-74
2023/03/14 04:08:01;;;;;;;;;3.00;1.75;;;;;12.53;60.28;100412.13;4997649;28;45624;-82
2023/03/14 04:10:26;;;;;;;;;1.00;0.33;;;;;12.49;60.68;100411.19;4996744;28;45276;-76
2023/03/14 04:12:52;;;;;;;;;2.75;1.00;;;;;12.49;60.65;100411.19;4996359;28;45361;-70
2023/03/14 04:15:18;;;;;;;;;3.00;1.00;;;;;12.52;60.66;100413.00;4996951;28;46148;-75
2023/03/14 04:17:43;;;;;;;;;2.00;1.00;;;;;12.60;60.40;100424.50;4996166;28;45237;-82
2023/03/14 04:20:12;;;;;;;;;2.50;1.00;;;;;12.56;60.39;100400.84;4996152;28;45345;-80
2023/03/14 04:22:39;;;;;;;;;2.00;2.00;;;;;12.59;60.02;100412.25;4996857;28;45554;-77
2023/03/14 04:25:05;;;;;;;;;4.00;1.00;;;;;12.46;60.59;100418.09;4979191;28;45484;-74
2023/03/14 04:27:31;;;;;;;;;6.00;2.00;;;;;12.57;60.72;100434.91;4996405;28;45415;-78
2023/03/14 04:29:57;;;;;;;;;3.00;2.00;;;;;12.54;61.31;100417.41;4996629;28;45360;-80
2023/03/14 04:32:22;;;;;;;;;2.25;2.00;;;;;12.60;61.34;100418.38;4997118;28;45415;-79
2023/03/14 04:34:48;;;;;;;;;3.25;2.00;;;;;12.61;61.53;100414.91;4996174;28;46076;-73
2023/03/14 04:37:13;;;;;;;;;1.75;1.75;;;;;12.59;62.02;100411.38;4996431;28;45379;-81
2023/03/14 04:39:39;;;;;;;;;3.00;2.00;;;;;12.47;61.70;100393.66;4996371;28;45239;-82
2023/03/14 04:42:05;;;;;;;;;4.00;1.00;;;;;12.52;61.39;100416.50;4997627;28;45520;-76
2023/03/14 04:44:31;;;;;;;;;0.33;0.00;;;;;12.51;60.53;100419.97;4995945;28;46179;-80
2023/03/14 04:46:56;;;;;;;;;0.00;0.00;;;;;12.45;60.80;100434.66;4996857;28;45354;-82
2023/03/14 04:49:22;;;;;;;;;1.00;0.67;;;;;12.50;60.52;100436.53;5011825;28;45675;-71
2023/03/14 04:51:48;;;;;;;;;2.33;0.00;;;;;12.43;60.64;100421.53;4995823;28;45598;-75
2023/03/14 04:54:13;;;;;;;;;1.25;1.00;;;;;12.50;60.53;100428.66;4984952;28;46331;-78
2023/03/14 04:56:38;;;;;;;;;0.25;0.25;;;;;12.58;60.23;100426.22;4989930;28;45461;-74
2023/03/14 04:59:04;;;;;;;;;2.75;1.75;;;;;12.52;60.28;100437.44;4996305;28;45455;-76
2023/03/14 05:01:30;;;;;;;;;3.25;1.50;;;;;12.58;60.66;100446.31;4995887;28;45464;-80
2023/03/14 05:03:56;;;;;;;;;5.75;2.00;;;;;12.36;61.15;100413.53;4995875;28;45376;-82
2023/03/14 05:06:22;;;;;;;;;3.25;0.00;;;;;12.50;61.26;100441.78;4996112;28;45399;-82
2023/03/14 05:08:47;;;;;;;;;5.75;2.00;;;;;12.53;61.74;100444.47;4995665;28;45415;-74
2023/03/14 05:11:13;;;;;;;;;1.00;1.00;;;;;12.56;60.97;100443.63;4996330;28;45316;-82
2023/03/14 05:13:39;;;;;;;;;2.50;1.00;;;;;12.63;60.81;100456.00;4995900;28;46109;-69
2023/03/14 05:16:09;;;;;;;;;3.50;2.00;;;;;12.64;61.82;100459.53;4998316;28;45645;-83
2023/03/14 05:18:35;;;;;;;;;4.00;1.25;;;;;12.63;61.22;100456.00;4998929;28;45422;-82
2023/03/14 05:21:01;;;;;;;;;3.00;2.00;;;;;12.61;61.87;100467.31;4998702;28;45719;-81
2023/03/14 05:23:27;;;;;;;;;7.50;7.25;;;;;12.65;61.66;100470.03;4994563;28;45401;-82
2023/03/14 05:25:53;;;;;;;;;3.00;2.75;;;;;12.52;60.84;100442.69;4992836;28;45373;-82
2023/03/14 05:28:19;;;;;;;;;1.75;1.00;;;;;12.59;60.65;100490.84;4999203;28;45517;-82
2023/03/14 05:30:44;;;;;;;;;3.25;1.75;;;;;12.61;61.01;100475.16;5015203;28;45614;-82
2023/03/14 05:33:10;;;;;;;;;4.00;2.50;;;;;12.53;60.57;100454.94;4999480;28;45434;-68
2023/03/14 05:35:35;;;;;;;;;2.00;2.00;;;;;12.64;60.90;100472.63;5000286;28;45466;-82
2023/03/14 05:38:01;;;;;;;;;4.50;1.50;;;;;12.66;60.67;100484.03;5000012;28;45363;-82
2023/03/14 05:40:26;;;;;;;;;4.75;2.00;;;;;12.69;60.69;100490.22;4999910;28;45214;-82
2023/03/14 05:42:52;;;;;;;;;3.50;2.00;;;;;12.71;60.48;100479.75;4999542;28;45555;-82
2023/03/14 05:45:18;;;;;;;;;7.00;2.00;;;;;12.65;60.59;100487.47;4998324;28;45313;-80
2023/03/14 05:47:43;;;;;;;;;1.75;1.00;;;;;12.51;60.44;100477.63;4999809;28;45532;-82
2023/03/14 05:50:10;;;;;;;;;3.75;2.00;;;;;12.63;60.61;100497.91;4999902;28;45568;-74
2023/03/14 05:52:35;;;;;;;;;1.50;1.50;;;;;12.65;60.60;100492.72;4999611;28;45442;-77
2023/03/14 05:55:01;;;;;;;;;3.50;3.00;;;;;12.65;61.18;100496.25;5014603;28;45438;-78
2023/03/14 05:57:27;;;;;;;;;4.25;2.25;;;;;12.58;61.34;100506.56;4999803;28;45356;-79
2023/03/14 05:59:52;;;;;;;;;2.50;2.00;;;;;12.61;61.26;100504.00;4998652;28;45473;-81
2023/03/14 06:02:18;;;;;;;;;4.00;1.50;;;;;12.61;61.17;100497.00;4998802;28;45465;-81
2023/03/14 06:04:43;;;;;;;;;2.00;1.00;;;;;12.63;61.36;100503.16;4999422;28;45304;-81
2023/03/14 06:07:09;;;;;;;;;2.25;1.50;;;;;12.69;60.91;100511.19;5001386;28;45473;-81
2023/03/14 06:09:34;;;;;;;;;4.75;2.00;;;;;12.65;60.46;100503.19;5000883;28;45499;-81
2023/03/14 06:12:00;;;;;;;;;3.00;2.00;;;;;12.68;60.96;100505.91;4999230;28;46092;-81
2023/03/14 06:14:25;;;;;;;;;7.00;5.75;;;;;12.73;61.07;100506.88;4999448;28;45521;-82
2023/03/14 06:16:52;;;;;;;;;5.25;4.75;;;;;12.68;61.39;100516.38;4999372;28;45217;-82
2023/03/14 06:19:18;;;;;;;;;3.25;2.50;;;;;12.64;61.05;100501.47;4999426;28;45194;-82
2023/03/14 06:21:43;;;;;;;;;5.00;2.50;;;;;12.72;61.37;100512.97;4997081;28;46079;-79
2023/03/14 06:24:09;;;;;;;;;6.00;5.00;;;;;12.75;61.35;100502.53;4999778;28;45340;-73
2023/03/14 06:26:35;;;;;;;;;6.50;5.00;;;;;12.74;61.60;100506.03;4997747;28;45528;-79
2023/03/14 06:29:03;;;;;;;;;4.00;2.50;;;;;12.71;61.83;100511.19;4998926;28;45317;-83
2023/03/14 06:31:32;;;;;;;;;4.00;3.00;;;;;12.74;61.88;100512.16;4997307;28;45983;-82
2023/03/14 06:33:58;;;;;;;;;6.00;3.25;;;;;12.76;61.31;100522.66;5013270;28;45505;-82
2023/03/14 06:36:24;;;;;;;;;2.75;2.75;;;;;12.71;61.47;100505.94;4998315;28;45424;-82
2023/03/14 06:38:50;;;;;;;;;4.50;2.00;;;;;12.76;61.53;100511.31;4998520;28;45515;-82
2023/03/14 06:41:16;;;;;;;;;3.00;2.00;;;;;12.81;61.45;100521.03;4997603;28;46080;-83
2023/03/14 06:43:41;;;;;;;;;4.25;2.25;;;;;12.86;61.55;100505.41;4998331;28;45497;-83
2023/03/14 06:46:07;;;;;;;;;2.50;2.00;;;;;12.95;61.30;100502.94;4996550;28;45386;-83
2023/03/14 06:48:32;;;;;;;;;5.50;4.00;;;;;13.07;60.70;100508.44;4998147;28;45282;-82
2023/03/14 06:50:58;;;;;;;;;13.75;12.00;;;;;13.09;61.04;100508.44;4997122;28;46142;-83
2023/03/14 06:53:23;;;;;;;;;11.75;8.75;;;;;13.18;60.73;100506.00;4997580;28;45511;-83
2023/03/14 06:55:49;;;;;;;;;5.75;5.00;;;;;13.23;60.65;100503.47;4998163;28;45462;-82
2023/03/14 06:58:14;;;;;;;;;1.00;1.00;;;;;13.18;60.73;100503.38;4997849;28;45874;-69
2023/03/14 07:00:40;;;;;;;;;6.25;2.00;;;;;13.22;61.17;100514.81;4999836;28;46309;-82
2023/03/14 07:03:06;;;;;;;;;5.75;2.50;;;;;13.20;63.20;100541.03;4999689;28;45387;-80
2023/03/14 07:05:31;;;;;;;;;4.00;1.50;;;;;13.18;63.00;100540.09;5001824;28;45389;-81
2023/03/14 07:07:57;;;;;;;;;4.50;3.00;;;;;12.91;63.33;100520.38;5001205;28;45561;-80
2023/03/14 07:10:22;;;;;;;;;2.33;1.33;;;;;12.92;63.94;100560.56;4998277;28;46016;-84
2023/03/14 07:12:48;;;;;;;;;2.00;2.00;;;;;12.84;64.47;100563.03;4996971;28;45581;-82
2023/03/14 07:15:14;;;;;;;;;4.75;1.25;;;;;12.78;66.53;100575.13;5009812;28;45439;-82
2023/03/14 07:17:40;;;;;;;;;4.00;2.00;;;;;12.61;66.04;100566.88;4999651;28;45404;-80
2023/03/14 07:20:07;;;;;;;;;2.50;2.00;;;;;12.70;67.32;100601.19;4996945;28;46314;-78
2023/03/14 07:22:32;;;;;;;;;2.50;1.50;;;;;12.50;67.32;100582.38;4995686;28;45593;-79
2023/03/14 07:24:58;;;;;;;;;3.75;2.50;;;;;12.44;67.77;100591.00;4996979;28;45401;-81
2023/03/14 07:27:24;;;;;;;;;4.00;2.25;;;;;12.53;67.70;100596.44;5010601;28;45415;-83
2023/03/14 07:29:50;;;;;;;;;3.25;2.75;;;;;12.56;69.07;100593.00;4996021;28;46118;-71
2023/03/14 07:32:15;;;;;;;;;2.00;0.25;;;;;12.51;67.85;100592.00;4996933;28;46177;-70
2023/03/14 07:34:42;;;;;;;;;4.00;1.00;;;;;12.63;67.64;100597.50;4996973;28;45177;-76
2023/03/14 07:37:08;;;;;;;;;4.75;2.25;;;;;12.72;66.81;100596.84;4997262;28;45464;-79
2023/03/14 07:39:34;;;;;;;;;2.00;1.00;;;;;12.73;66.58;100582.88;4996577;28;46015;-81
2023/03/14 07:41:59;;;;;;;;;14.00;12.00;;;;;12.87;66.86;100591.94;4996805;28;45568;-77
2023/03/14 07:44:25;;;;;;;;;16.25;12.00;;;;;12.91;67.03;100592.88;4996669;28;45456;-78
2023/03/14 07:46:51;;;;;;;;;6.00;4.25;;;;;12.95;66.87;100599.94;4996666;28;45399;-78
2023/03/14 07:49:17;;;;;;;;;4.25;2.75;;;;;12.90;66.17;100597.25;4995976;28;45292;-77
2023/03/14 07:51:43;;;;;;;;;9.00;7.00;;;;;13.06;66.29;100600.19;4995936;28;45475;-76
2023/03/14 07:54:09;;;;;;;;;4.00;4.00;;;;;13.26;65.87;100611.97;4996729;28;45673;-76
2023/03/14 07:56:35;;;;;;;;;7.00;4.75;;;;;13.35;65.74;100607.78;4997391;28;45548;-78
2023/03/14 07:59:01;;;;;;;;;14.50;12.50;;;;;13.48;65.21;100613.31;5001891;28;45368;-77
2023/03/14 08:01:27;;;;;;;;;7.75;7.75;;;;;13.64;64.49;100619.72;4998400;28;45689;-77
2023/03/14 08:03:52;;;;;;;;;7.00;7.00;;;;;13.79;64.04;100616.50;4989895;28;45515;-77
2023/03/14 08:06:18;;;;;;;;;3.25;3.25;;;;;13.90;62.84;100611.44;4998847;28;45228;-78
2023/03/14 08:08:43;;;;;;;;;3.33;3.00;;;;;13.97;62.91;100604.56;5009437;28;45001;-74
2023/03/14 08:11:09;;;;;;;;;2.33;0.67;;;;;14.04;61.68;100602.03;5014394;28;45395;-74
2023/03/14 08:13:36;;;;;;;;;1.00;0.33;;;;;14.09;61.78;100608.28;5010459;28;45394;-77
2023/03/14 08:16:02;;;;;;;;;1.33;0.00;;;;;14.07;61.47;100598.59;5009521;28;44699;-77
2023/03/14 08:18:27;;;;;;;;;2.00;1.00;;;;;14.06;61.42;100587.19;5005686;28;46019;-78
2023/03/14 08:20:53;;;;;;;;;2.00;1.00;;;;;14.33;60.75;100597.25;4996227;28;45545;-79
2023/03/14 08:23:18;;;;;;;;;2.00;1.00;;;;;14.60;60.44;100592.44;4996936;28;45934;-79
2023/03/14 08:25:44;;;;;;;;;5.25;4.00;;;;;14.64;59.65;100608.28;4995277;28;45579;-79
2023/03/14 08:28:09;;;;;;;;;1.00;1.00;;;;;14.45;59.99;100612.34;4996067;28;46276;-78
2023/03/14 08:30:35;;;;;;;;;1.00;1.00;;;;;14.29;60.41;100636.63;4996700;28;45627;-78
2023/03/14 08:33:00;;;;;;;;;3.00;2.00;;;;;14.09;60.64;100638.91;4996651;28;45435;-79
2023/03/14 08:35:27;;;;;;;;;2.00;2.00;;;;;13.77;60.85;100672.44;4996769;28;45417;-79
2023/03/14 08:37:53;;;;;;;;;2.33;2.00;;;;;13.58;62.86;100732.47;4995737;28;45516;-73
2023/03/14 08:40:18;;;;;;;;;4.00;1.00;;;;;13.26;63.99;100740.50;4996388;28;45501;-79
2023/03/14 08:42:44;;;;;;;;;1.33;0.00;;;;;13.00;64.24;100739.06;4996280;28;45391;-79
2023/03/14 08:45:13;;;;;;;;;5.50;4.00;;;;;12.82;65.85;100737.75;4996624;28;45246;-79
2023/03/14 08:47:39;;;;;;;;;2.33;1.33;;;;;12.85;64.91;100724.75;4995895;28;45478;-75
2023/03/14 08:50:06;;;;;;;;;1.33;0.00;;;;;12.93;64.80;100717.94;4996817;28;45339;-72
2023/03/14 08:52:32;;;;;;;;;0.75;0.00;;;;;12.96;64.11;100718.84;4999743;28;45465;-79
2023/03/14 08:54:58;;;;;;;;;0.00;0.00;;;;;13.12;64.09;100734.09;4999505;28;45650;-79
2023/03/14 08:57:27;;;;;;;;;5.00;4.00;;;;;13.40;63.34;100735.59;4999579;28;45483;-79
2023/03/14 08:59:55;;;;;;;;;0.33;0.00;;;;;13.69;62.09;100717.84;4999654;28;45478;-75
2023/03/14 09:02:20;;;;;;;;;1.00;1.00;;;;;14.09;61.53;100722.97;4985120;28;45506;-79
2023/03/14 09:04:46;;;;;;;;;2.00;2.00;;;;;14.37;60.24;100721.72;4999966;28;45558;-79
2023/03/14 09:07:11;;;;;;;;;2.00;2.00;;;;;14.63;59.88;100723.94;4999457;28;45360;-79
2023/03/14 09:09:37;;;;;;;;;2.33;2.00;;;;;14.94;59.10;100724.41;4999392;28;45373;-78
2023/03/14 09:12:03;;;;;;;;;2.00;2.00;;;;;15.15;58.77;100713.31;4999791;28;45447;-79
2023/03/14 09:14:28;;;;;;;;;2.00;1.67;;;;;15.36;58.15;100720.59;4999613;28;45448;-79
2023/03/14 09:16:54;;;;;;;;;1.33;0.00;;;;;15.47;58.22;100711.09;4999223;28;45545;-79
2023/03/14 09:19:20;;;;;;;;;3.00;2.00;;;;;15.35;58.45;100719.72;4999460;28;45491;-77
2023/03/14 09:21:45;;;;;;;;;0.00;0.00;;;;;15.46;57.80;100712.00;4999277;28;45413;-79
2023/03/14 09:24:11;;;;;;;;;1.33;0.33;;;;;15.24;57.97;100727.50;4999394;28;45248;-79
2023/03/14 09:26:37;;;;;;;;;2.67;2.00;;;;;15.17;59.27;100723.00;4999451;28;45319;-78
2023/03/14 09:29:03;;;;;;;;;4.33;4.00;;;;;15.25;59.07;100718.72;5007494;28;45483;-79
2023/03/14 09:31:29;;;;;;;;;3.00;0.33;;;;;15.13;59.82;100722.94;4990046;28;45506;-79
2023/03/14 09:33:55;;;;;;;;;0.00;0.00;;;;;15.18;60.01;100729.13;4998970;28;45403;-79
2023/03/14 09:36:20;;;;;;;;;2.67;1.33;;;;;15.20;59.66;100740.56;4998973;28;46054;-79
2023/03/14 09:38:46;;;;;;;;;2.33;2.00;;;;;15.21;59.22;100743.22;4998556;28;45578;-79
2023/03/14 09:41:29;;;;;;;;;3.00;2.00;;;;;15.33;59.85;100742.50;4999048;28;45220;-80
2023/03/14 09:44:06;;;;;;;;;8.00;5.75;;;;;15.62;59.40;100747.28;4999016;28;45282;-75
2023/03/14 09:46:35;;;;;;;;;3.00;1.33;;;;;15.85;58.43;100727.38;4999402;28;46187;-79
2023/03/14 09:49:01;;;;;;;;;3.00;2.00;;;;;16.44;57.05;100739.41;4988845;28;45427;-80
2023/03/14 09:51:27;;;;;;;;;2.00;2.00;;;;;16.73;55.99;100740.53;4998834;28;45545;-80
2023/03/14 09:53:53;;;;;;;;;1.33;1.00;;;;;16.83;55.85;100739.75;4999364;28;45394;-80
2023/03/14 09:56:30;;;;;;;;;3.00;2.00;;;;;16.85;56.11;100743.28;4995131;28;47600;-80
2023/03/14 09:58:58;;;;;;;;;2.67;2.00;;;;;16.58;54.08;100736.91;4998659;28;45414;-77
2023/03/14 10:01:29;;;;;;;;;2.00;1.00;;;;;16.30;55.39;100720.84;4998297;28;45541;-78
2023/03/14 10:03:57;;;;;;;;;5.00;2.67;;;;;16.45;55.91;100742.94;4998817;28;45725;-78
2023/03/14 10:06:27;;;;;;;;;4.67;2.67;;;;;16.37;55.79;100742.84;4983771;28;46090;-80
2023/03/14 10:08:54;;;;;;;;;2.00;1.00;;;;;16.18;55.85;100770.81;4998733;28;45310;-79
2023/03/14 10:11:20;;;;;;;;;0.00;0.00;;;;;15.91;54.67;100769.59;4998917;28;45177;-79
2023/03/14 10:14:12;;;;;;;;;2.67;1.00;;;;;16.02;54.13;100782.94;4998660;28;45410;-79
2023/03/14 10:16:45;;;;;;;;;0.33;0.33;;;;;16.28;54.39;100777.06;4997079;28;48110;-78
2023/03/14 10:19:14;;;;;;;;;1.00;0.00;;;;;16.29;54.45;100770.91;4998640;28;45418;-79
2023/03/14 10:21:42;;;;;;;;;1.00;1.00;;;;;16.34;54.79;100769.22;4996945;28;45346;-80
2023/03/14 10:24:26;;;;;;;;;3.00;1.00;;;;;16.09;55.16;100784.78;4999332;28;45275;-80
2023/03/14 10:26:53;;;;;;;;;1.67;1.67;;;;;15.76;57.03;100798.41;4998523;28;45525;-79
2023/03/14 10:29:21;;;;;;;;;2.67;0.67;;;;;15.45;57.80;100800.59;4998042;28;45410;-69
2023/03/14 10:31:51;;;;;;;;;1.00;1.00;;;;;15.24;59.15;100785.38;4985835;28;45424;-79
2023/03/14 10:34:22;;;;;;;;;1.67;0.00;;;;;15.13;59.72;100794.00;4987417;28;45399;-80
2023/03/14 10:36:53;;;;;;;;;2.00;1.00;;;;;15.14;60.66;100793.09;4998575;28;46305;-80
2023/03/14 10:39:27;;;;;;;;;1.00;0.33;;;;;15.21;60.90;100785.34;4996224;28;45586;-79
2023/03/14 10:42:16;;;;;;;;;1.00;1.00;;;;;15.32;60.77;100788.13;4998149;28;45431;-79
2023/03/14 10:44:42;;;;;;;;;2.00;1.00;;;;;15.52;59.77;100775.25;4998393;28;45481;-79
2023/03/14 10:47:17;;;;;;;;;0.33;0.33;;;;;15.77;59.36;100791.41;4997057;28;46531;-79
2023/03/14 10:49:43;;;;;;;;;2.67;1.00;;;;;15.93;59.14;100785.44;4998072;28;45607;-80
2023/03/14 10:52:29;;;;;;;;;3.00;1.00;;;;;15.82;59.75;100795.88;4997979;28;45323;-80
2023/03/14 10:55:10;;;;;;;;;3.00;2.00;;;;;15.80;59.39;100787.06;4998381;28;45597;-79
2023/03/14 10:57:43;;;;;;;;;1.33;0.00;;;;;15.42;60.17;100789.13;5005828;28;47104;-79
2023/03/14 11:00:16;;;;;;;;;1.33;0.67;;;;;15.28;60.72;100784.56;4982299;28;45831;-74
2023/03/14 11:03:00;;;;;;;;;3.00;2.00;;;;;15.23;62.21;100791.50;4983693;28;45503;-79
2023/03/14 11:05:28;;;;;;;;;4.00;4.00;;;;;15.13;62.12;100788.72;4998377;28;45338;-79
2023/03/14 11:08:01;;;;;;;;;2.00;1.00;;;;;15.22;61.81;100795.00;4998328;28;46329;-75
2023/03/14 11:10:37;;;;;;;;;2.00;1.00;;;;;15.10;61.73;100787.81;4997928;28;45383;-79
2023/03/14 11:13:26;;;;;;;;;7.67;5.00;;;;;15.30;62.30;100788.13;4997555;28;45572;-78
2023/03/14 11:16:07;;;;;;;;;3.00;1.00;;;;;15.43;61.12;100788.28;4998172;28;45454;-78
2023/03/14 11:19:09;;;;;;;;;2.67;2.00;;;;;15.35;60.60;100788.16;4998037;28;46028;-78
2023/03/14 11:21:46;;;;;;;;;2.00;0.00;;;;;15.09;60.05;100793.91;4997355;28;45442;-77
2023/03/14 11:24:15;;;;;;;;;2.00;1.67;;;;;14.97;60.18;100796.38;4984575;28;45466;-79
2023/03/14 11:27:03;;;;;;;;;2.00;1.00;;;;;14.98;60.30;100803.41;4998174;28;45322;-79